sensor_id;sensor_type;location;lat;lon;timestamp;P1;durP1;ratioP1;P2;durP2;ratioP2
48665;SDS011;34452;50.796;4.994;2023-12-29T00:04:27;11.98;;;2.17;;
48665;SDS011;34452;50.796;4.994;2023-12-29T00:06:53;16.13;;;2.67;;
48665;SDS011;34452;50.796;4.994;2023-12-29T00:09:20;8.45;;;2.17;;
48665;SDS011;34452;50.796;4.994;2023-12-29T00:11:46;13.90;;;2.58;;
48665;SDS011;34452;50.796;4.994;2023-12-29T00:14:13;18.25;;;3.15;;
48665;SDS011;34452;50.796;4.994;2023-12-29T00:16:39;14.02;;;2.45;;
48665;SDS011;34452;50.796;4.994;2023-12-29T00:19:05;16.88;;;2.30;;
48665;SDS011;34452;50.796;4.994;2023-12-29T00:21:30;16.40;;;2.70;;
48665;SDS011;34452;50.796;4.994;2023-12-29T00:23:56;17.73;;;2.80;;
48665;SDS011;34452;50.796;4.994;2023-12-29T00:26:22;12.38;;;2.30;;
48665;SDS011;34452;50.796;4.994;2023-12-29T00:28:48;15.52;;;2.03;;
48665;SDS011;34452;50.796;4.994;2023-12-29T00:31:14;13.65;;;2.42;;
48665;SDS011;34452;50.796;4.994;2023-12-29T00:33:43;12.60;;;2.03;;
48665;SDS011;34452;50.796;4.994;2023-12-29T00:36:18;13.38;;;2.70;;
48665;SDS011;34452;50.796;4.994;2023-12-29T00:38:45;17.38;;;3.10;;
48665;SDS011;34452;50.796;4.994;2023-12-29T00:41:11;14.05;;;2.33;;
48665;SDS011;34452;50.796;4.994;2023-12-29T00:43:37;12.43;;;3.00;;
48665;SDS011;34452;50.796;4.994;2023-12-29T00:46:03;19.23;;;2.83;;
48665;SDS011;34452;50.796;4.994;2023-12-29T00:48:30;13.27;;;2.53;;
48665;SDS011;34452;50.796;4.994;2023-12-29T00:50:56;16.15;;;2.45;;
48665;SDS011;34452;50.796;4.994;2023-12-29T00:53:22;9.85;;;2.47;;
48665;SDS011;34452;50.796;4.994;2023-12-29T00:55:48;13.52;;;2.95;;
48665;SDS011;34452;50.796;4.994;2023-12-29T00:58:13;12.80;;;2.50;;
48665;SDS011;34452;50.796;4.994;2023-12-29T01:00:39;13.02;;;2.30;;
48665;SDS011;34452;50.796;4.994;2023-12-29T01:03:05;12.35;;;2.33;;
48665;SDS011;34452;50.796;4.994;2023-12-29T01:05:31;15.00;;;2.50;;
48665;SDS011;34452;50.796;4.994;2023-12-29T01:07:57;16.98;;;2.53;;
48665;SDS011;34452;50.796;4.994;2023-12-29T01:10:23;15.30;;;2.42;;
48665;SDS011;34452;50.796;4.994;2023-12-29T01:12:48;9.48;;;2.03;;
48665;SDS011;34452;50.796;4.994;2023-12-29T01:15:14;14.60;;;2.47;;
48665;SDS011;34452;50.796;4.994;2023-12-29T01:17:40;13.55;;;3.08;;
48665;SDS011;34452;50.796;4.994;2023-12-29T01:20:06;14.60;;;3.58;;
48665;SDS011;34452;50.796;4.994;2023-12-29T01:22:33;16.60;;;3.72;;
48665;SDS011;34452;50.796;4.994;2023-12-29T01:24:59;15.70;;;2.45;;
48665;SDS011;34452;50.796;4.994;2023-12-29T01:29:51;27.27;;;2.88;;
48665;SDS011;34452;50.796;4.994;2023-12-29T01:32:18;9.80;;;2.25;;
48665;SDS011;34452;50.796;4.994;2023-12-29T01:37:09;16.67;;;3.70;;
48665;SDS011;34452;50.796;4.994;2023-12-29T01:39:35;13.27;;;2.95;;
48665;SDS011;34452;50.796;4.994;2023-12-29T01:42:01;14.13;;;3.08;;
48665;SDS011;34452;50.796;4.994;2023-12-29T01:44:27;15.20;;;2.47;;
48665;SDS011;34452;50.796;4.994;2023-12-29T01:46:53;14.63;;;2.45;;
48665;SDS011;34452;50.796;4.994;2023-12-29T01:49:21;11.68;;;1.75;;
48665;SDS011;34452;50.796;4.994;2023-12-29T01:51:52;15.57;;;2.28;;
48665;SDS011;34452;50.796;4.994;2023-12-29T01:54:22;12.02;;;2.40;;
48665;SDS011;34452;50.796;4.994;2023-12-29T01:56:50;16.67;;;2.45;;
48665;SDS011;34452;50.796;4.994;2023-12-29T01:59:22;20.20;;;3.40;;
48665;SDS011;34452;50.796;4.994;2023-12-29T02:01:50;14.45;;;2.38;;
48665;SDS011;34452;50.796;4.994;2023-12-29T02:04:16;14.85;;;2.42;;
48665;SDS011;34452;50.796;4.994;2023-12-29T02:06:43;15.27;;;2.50;;
48665;SDS011;34452;50.796;4.994;2023-12-29T02:09:09;14.63;;;2.63;;
48665;SDS011;34452;50.796;4.994;2023-12-29T02:11:37;11.57;;;1.88;;
48665;SDS011;34452;50.796;4.994;2023-12-29T02:14:03;14.43;;;2.50;;
48665;SDS011;34452;50.796;4.994;2023-12-29T02:16:40;13.73;;;2.83;;
48665;SDS011;34452;50.796;4.994;2023-12-29T02:22:05;13.25;;;2.38;;
48665;SDS011;34452;50.796;4.994;2023-12-29T02:24:33;11.73;;;1.98;;
48665;SDS011;34452;50.796;4.994;2023-12-29T02:27:08;13.20;;;2.40;;
48665;SDS011;34452;50.796;4.994;2023-12-29T02:30:06;14.05;;;2.30;;
48665;SDS011;34452;50.796;4.994;2023-12-29T02:32:33;13.98;;;2.30;;
48665;SDS011;34452;50.796;4.994;2023-12-29T02:35:03;14.63;;;2.25;;
48665;SDS011;34452;50.796;4.994;2023-12-29T02:37:32;7.70;;;1.98;;
48665;SDS011;34452;50.796;4.994;2023-12-29T02:40:01;11.52;;;2.60;;
48665;SDS011;34452;50.796;4.994;2023-12-29T02:42:27;15.98;;;2.58;;
48665;SDS011;34452;50.796;4.994;2023-12-29T02:44:53;12.90;;;2.03;;
48665;SDS011;34452;50.796;4.994;2023-12-29T02:47:19;10.95;;;2.20;;
48665;SDS011;34452;50.796;4.994;2023-12-29T02:49:46;11.55;;;2.30;;
48665;SDS011;34452;50.796;4.994;2023-12-29T02:52:12;15.48;;;2.42;;
48665;SDS011;34452;50.796;4.994;2023-12-29T02:54:38;15.00;;;2.42;;
48665;SDS011;34452;50.796;4.994;2023-12-29T02:57:04;16.15;;;2.22;;
48665;SDS011;34452;50.796;4.994;2023-12-29T02:59:29;7.38;;;1.90;;
48665;SDS011;34452;50.796;4.994;2023-12-29T03:01:55;13.07;;;2.63;;
48665;SDS011;34452;50.796;4.994;2023-12-29T03:04:21;12.00;;;2.17;;
48665;SDS011;34452;50.796;4.994;2023-12-29T03:06:47;10.48;;;2.45;;
48665;SDS011;34452;50.796;4.994;2023-12-29T03:09:13;6.22;;;1.90;;
48665;SDS011;34452;50.796;4.994;2023-12-29T03:11:39;17.77;;;2.70;;
48665;SDS011;34452;50.796;4.994;2023-12-29T03:14:05;15.88;;;2.28;;
48665;SDS011;34452;50.796;4.994;2023-12-29T03:16:30;16.25;;;2.08;;
48665;SDS011;34452;50.796;4.994;2023-12-29T03:18:56;13.37;;;2.20;;
48665;SDS011;34452;50.796;4.994;2023-12-29T03:21:22;15.25;;;2.40;;
48665;SDS011;34452;50.796;4.994;2023-12-29T03:23:48;11.23;;;2.40;;
48665;SDS011;34452;50.796;4.994;2023-12-29T03:26:13;11.88;;;1.85;;
48665;SDS011;34452;50.796;4.994;2023-12-29T03:28:39;11.90;;;2.10;;
48665;SDS011;34452;50.796;4.994;2023-12-29T03:31:05;12.05;;;2.03;;
48665;SDS011;34452;50.796;4.994;2023-12-29T03:35:57;14.45;;;2.42;;
48665;SDS011;34452;50.796;4.994;2023-12-29T03:38:23;15.77;;;2.50;;
48665;SDS011;34452;50.796;4.994;2023-12-29T03:40:48;18.48;;;2.55;;
48665;SDS011;34452;50.796;4.994;2023-12-29T03:43:14;17.45;;;2.10;;
48665;SDS011;34452;50.796;4.994;2023-12-29T03:45:40;12.35;;;1.88;;
48665;SDS011;34452;50.796;4.994;2023-12-29T03:48:06;12.38;;;2.15;;
48665;SDS011;34452;50.796;4.994;2023-12-29T03:50:33;18.08;;;2.35;;
48665;SDS011;34452;50.796;4.994;2023-12-29T03:52:59;12.65;;;2.13;;
48665;SDS011;34452;50.796;4.994;2023-12-29T03:55:25;11.35;;;2.35;;
48665;SDS011;34452;50.796;4.994;2023-12-29T03:57:51;16.60;;;2.70;;
48665;SDS011;34452;50.796;4.994;2023-12-29T04:00:17;14.07;;;1.92;;
48665;SDS011;34452;50.796;4.994;2023-12-29T04:02:43;17.25;;;2.50;;
48665;SDS011;34452;50.796;4.994;2023-12-29T04:05:09;15.02;;;2.10;;
48665;SDS011;34452;50.796;4.994;2023-12-29T04:10:01;18.48;;;1.95;;
48665;SDS011;34452;50.796;4.994;2023-12-29T04:12:28;11.80;;;2.15;;
48665;SDS011;34452;50.796;4.994;2023-12-29T04:14:54;17.90;;;2.00;;
48665;SDS011;34452;50.796;4.994;2023-12-29T04:17:20;10.48;;;2.65;;
48665;SDS011;34452;50.796;4.994;2023-12-29T04:19:45;17.25;;;2.08;;
48665;SDS011;34452;50.796;4.994;2023-12-29T04:22:11;12.30;;;1.83;;
48665;SDS011;34452;50.796;4.994;2023-12-29T04:24:37;19.00;;;2.30;;
48665;SDS011;34452;50.796;4.994;2023-12-29T04:27:03;17.77;;;2.55;;
48665;SDS011;34452;50.796;4.994;2023-12-29T04:31:55;14.05;;;2.60;;
48665;SDS011;34452;50.796;4.994;2023-12-29T04:34:21;13.20;;;2.17;;
48665;SDS011;34452;50.796;4.994;2023-12-29T04:36:46;12.05;;;2.20;;
48665;SDS011;34452;50.796;4.994;2023-12-29T04:39:12;14.52;;;1.85;;
48665;SDS011;34452;50.796;4.994;2023-12-29T04:41:38;12.55;;;1.95;;
48665;SDS011;34452;50.796;4.994;2023-12-29T04:44:04;13.40;;;1.77;;
48665;SDS011;34452;50.796;4.994;2023-12-29T04:46:29;13.63;;;1.85;;
48665;SDS011;34452;50.796;4.994;2023-12-29T04:48:55;12.00;;;2.00;;
48665;SDS011;34452;50.796;4.994;2023-12-29T04:51:21;11.32;;;2.63;;
48665;SDS011;34452;50.796;4.994;2023-12-29T04:53:48;12.07;;;2.10;;
48665;SDS011;34452;50.796;4.994;2023-12-29T04:56:14;11.00;;;2.38;;
48665;SDS011;34452;50.796;4.994;2023-12-29T04:58:39;9.75;;;1.77;;
48665;SDS011;34452;50.796;4.994;2023-12-29T05:01:05;13.00;;;2.60;;
48665;SDS011;34452;50.796;4.994;2023-12-29T05:03:33;15.90;;;2.30;;
48665;SDS011;34452;50.796;4.994;2023-12-29T05:05:59;17.42;;;2.65;;
48665;SDS011;34452;50.796;4.994;2023-12-29T05:08:25;13.73;;;1.90;;
48665;SDS011;34452;50.796;4.994;2023-12-29T05:10:50;11.63;;;2.17;;
48665;SDS011;34452;50.796;4.994;2023-12-29T05:13:16;14.50;;;2.22;;
48665;SDS011;34452;50.796;4.994;2023-12-29T05:15:42;12.43;;;2.17;;
48665;SDS011;34452;50.796;4.994;2023-12-29T05:18:08;10.75;;;2.22;;
48665;SDS011;34452;50.796;4.994;2023-12-29T05:20:34;11.73;;;1.98;;
48665;SDS011;34452;50.796;4.994;2023-12-29T05:23:00;11.13;;;1.92;;
48665;SDS011;34452;50.796;4.994;2023-12-29T05:25:26;9.05;;;1.65;;
48665;SDS011;34452;50.796;4.994;2023-12-29T05:27:51;12.20;;;2.03;;
48665;SDS011;34452;50.796;4.994;2023-12-29T05:30:17;11.55;;;1.70;;
48665;SDS011;34452;50.796;4.994;2023-12-29T05:32:43;9.23;;;1.73;;
48665;SDS011;34452;50.796;4.994;2023-12-29T05:35:08;17.00;;;2.67;;
48665;SDS011;34452;50.796;4.994;2023-12-29T05:37:34;14.90;;;2.20;;
48665;SDS011;34452;50.796;4.994;2023-12-29T05:40:00;12.70;;;2.08;;
48665;SDS011;34452;50.796;4.994;2023-12-29T05:42:26;13.63;;;2.10;;
48665;SDS011;34452;50.796;4.994;2023-12-29T05:44:52;11.68;;;2.00;;
48665;SDS011;34452;50.796;4.994;2023-12-29T05:47:17;13.37;;;2.37;;
48665;SDS011;34452;50.796;4.994;2023-12-29T05:49:43;14.57;;;1.95;;
48665;SDS011;34452;50.796;4.994;2023-12-29T05:52:09;16.88;;;2.58;;
48665;SDS011;34452;50.796;4.994;2023-12-29T05:54:35;13.43;;;2.15;;
48665;SDS011;34452;50.796;4.994;2023-12-29T05:57:01;15.40;;;2.05;;
48665;SDS011;34452;50.796;4.994;2023-12-29T05:59:27;12.73;;;1.85;;
48665;SDS011;34452;50.796;4.994;2023-12-29T06:01:53;14.68;;;1.70;;
48665;SDS011;34452;50.796;4.994;2023-12-29T06:04:18;12.80;;;2.33;;
48665;SDS011;34452;50.796;4.994;2023-12-29T06:06:44;17.08;;;2.08;;
48665;SDS011;34452;50.796;4.994;2023-12-29T06:11:36;16.92;;;2.33;;
48665;SDS011;34452;50.796;4.994;2023-12-29T06:14:03;14.93;;;2.13;;
48665;SDS011;34452;50.796;4.994;2023-12-29T06:16:28;21.15;;;2.60;;
48665;SDS011;34452;50.796;4.994;2023-12-29T06:18:57;16.50;;;2.10;;
48665;SDS011;34452;50.796;4.994;2023-12-29T06:21:23;14.13;;;1.90;;
48665;SDS011;34452;50.796;4.994;2023-12-29T06:23:49;15.27;;;2.90;;
48665;SDS011;34452;50.796;4.994;2023-12-29T06:26:18;17.40;;;3.17;;
48665;SDS011;34452;50.796;4.994;2023-12-29T06:28:45;18.48;;;2.25;;
48665;SDS011;34452;50.796;4.994;2023-12-29T06:31:12;22.08;;;3.75;;
48665;SDS011;34452;50.796;4.994;2023-12-29T06:33:41;15.95;;;2.72;;
48665;SDS011;34452;50.796;4.994;2023-12-29T06:36:08;20.92;;;2.47;;
48665;SDS011;34452;50.796;4.994;2023-12-29T06:38:35;12.43;;;2.03;;
48665;SDS011;34452;50.796;4.994;2023-12-29T06:43:29;21.92;;;3.03;;
48665;SDS011;34452;50.796;4.994;2023-12-29T06:45:55;10.50;;;1.95;;
48665;SDS011;34452;50.796;4.994;2023-12-29T06:48:21;16.02;;;2.30;;
48665;SDS011;34452;50.796;4.994;2023-12-29T06:50:47;18.25;;;2.88;;
48665;SDS011;34452;50.796;4.994;2023-12-29T06:53:13;17.90;;;2.70;;
48665;SDS011;34452;50.796;4.994;2023-12-29T06:55:38;17.23;;;3.33;;
48665;SDS011;34452;50.796;4.994;2023-12-29T06:58:04;20.92;;;2.78;;
48665;SDS011;34452;50.796;4.994;2023-12-29T07:00:30;15.82;;;2.67;;
48665;SDS011;34452;50.796;4.994;2023-12-29T07:02:56;16.70;;;2.40;;
48665;SDS011;34452;50.796;4.994;2023-12-29T07:05:22;17.33;;;2.25;;
48665;SDS011;34452;50.796;4.994;2023-12-29T07:07:47;17.40;;;2.25;;
48665;SDS011;34452;50.796;4.994;2023-12-29T07:10:13;20.38;;;2.15;;
48665;SDS011;34452;50.796;4.994;2023-12-29T07:12:42;15.40;;;1.85;;
48665;SDS011;34452;50.796;4.994;2023-12-29T07:15:08;16.13;;;2.17;;
48665;SDS011;34452;50.796;4.994;2023-12-29T07:17:35;16.05;;;2.08;;
48665;SDS011;34452;50.796;4.994;2023-12-29T07:20:01;14.93;;;2.65;;
48665;SDS011;34452;50.796;4.994;2023-12-29T07:22:27;15.77;;;2.50;;
48665;SDS011;34452;50.796;4.994;2023-12-29T07:24:52;20.38;;;2.95;;
48665;SDS011;34452;50.796;4.994;2023-12-29T07:27:18;17.08;;;3.05;;
48665;SDS011;34452;50.796;4.994;2023-12-29T07:29:44;14.70;;;1.95;;
48665;SDS011;34452;50.796;4.994;2023-12-29T07:32:10;10.68;;;1.50;;
48665;SDS011;34452;50.796;4.994;2023-12-29T07:34:36;10.65;;;1.85;;
48665;SDS011;34452;50.796;4.994;2023-12-29T07:37:01;16.83;;;2.03;;
48665;SDS011;34452;50.796;4.994;2023-12-29T07:39:27;12.68;;;2.15;;
48665;SDS011;34452;50.796;4.994;2023-12-29T07:41:53;17.05;;;2.25;;
48665;SDS011;34452;50.796;4.994;2023-12-29T07:44:19;13.23;;;1.80;;
48665;SDS011;34452;50.796;4.994;2023-12-29T07:46:45;11.48;;;2.22;;
48665;SDS011;34452;50.796;4.994;2023-12-29T07:49:11;14.55;;;1.85;;
48665;SDS011;34452;50.796;4.994;2023-12-29T07:51:40;16.17;;;2.13;;
48665;SDS011;34452;50.796;4.994;2023-12-29T07:54:07;19.33;;;1.90;;
48665;SDS011;34452;50.796;4.994;2023-12-29T07:56:33;14.05;;;1.98;;
48665;SDS011;34452;50.796;4.994;2023-12-29T07:58:59;12.82;;;1.67;;
48665;SDS011;34452;50.796;4.994;2023-12-29T08:01:25;14.25;;;2.50;;
48665;SDS011;34452;50.796;4.994;2023-12-29T08:03:52;17.02;;;2.85;;
48665;SDS011;34452;50.796;4.994;2023-12-29T08:06:18;21.00;;;2.90;;
48665;SDS011;34452;50.796;4.994;2023-12-29T08:08:43;17.50;;;2.15;;
48665;SDS011;34452;50.796;4.994;2023-12-29T08:11:13;12.52;;;2.65;;
48665;SDS011;34452;50.796;4.994;2023-12-29T08:13:46;12.05;;;1.58;;
48665;SDS011;34452;50.796;4.994;2023-12-29T08:16:12;15.60;;;2.05;;
48665;SDS011;34452;50.796;4.994;2023-12-29T08:18:38;12.73;;;1.70;;
48665;SDS011;34452;50.796;4.994;2023-12-29T08:21:04;12.52;;;2.10;;
48665;SDS011;34452;50.796;4.994;2023-12-29T08:23:30;16.80;;;1.77;;
48665;SDS011;34452;50.796;4.994;2023-12-29T08:25:56;7.30;;;1.25;;
48665;SDS011;34452;50.796;4.994;2023-12-29T08:28:25;12.70;;;2.10;;
48665;SDS011;34452;50.796;4.994;2023-12-29T08:30:51;13.13;;;1.85;;
48665;SDS011;34452;50.796;4.994;2023-12-29T08:33:17;9.68;;;1.95;;
48665;SDS011;34452;50.796;4.994;2023-12-29T08:35:46;11.57;;;2.47;;
48665;SDS011;34452;50.796;4.994;2023-12-29T08:38:16;10.55;;;1.63;;
48665;SDS011;34452;50.796;4.994;2023-12-29T08:40:42;11.07;;;1.52;;
48665;SDS011;34452;50.796;4.994;2023-12-29T08:43:08;12.48;;;2.78;;
48665;SDS011;34452;50.796;4.994;2023-12-29T08:45:34;7.95;;;1.42;;
48665;SDS011;34452;50.796;4.994;2023-12-29T08:48:00;10.45;;;2.08;;
48665;SDS011;34452;50.796;4.994;2023-12-29T08:50:26;9.63;;;1.70;;
48665;SDS011;34452;50.796;4.994;2023-12-29T08:52:52;12.90;;;2.05;;
48665;SDS011;34452;50.796;4.994;2023-12-29T08:55:17;16.85;;;2.03;;
48665;SDS011;34452;50.796;4.994;2023-12-29T08:57:43;16.65;;;2.25;;
48665;SDS011;34452;50.796;4.994;2023-12-29T09:00:09;16.20;;;1.80;;
48665;SDS011;34452;50.796;4.994;2023-12-29T09:02:35;20.60;;;2.33;;
48665;SDS011;34452;50.796;4.994;2023-12-29T09:05:01;11.27;;;2.30;;
48665;SDS011;34452;50.796;4.994;2023-12-29T09:07:26;10.15;;;2.08;;
48665;SDS011;34452;50.796;4.994;2023-12-29T09:09:53;10.73;;;1.67;;
48665;SDS011;34452;50.796;4.994;2023-12-29T09:12:19;13.05;;;2.50;;
48665;SDS011;34452;50.796;4.994;2023-12-29T09:14:44;12.50;;;2.38;;
48665;SDS011;34452;50.796;4.994;2023-12-29T09:17:10;18.73;;;2.10;;
48665;SDS011;34452;50.796;4.994;2023-12-29T09:19:36;12.35;;;1.90;;
48665;SDS011;34452;50.796;4.994;2023-12-29T09:22:02;9.07;;;1.85;;
48665;SDS011;34452;50.796;4.994;2023-12-29T09:24:28;13.60;;;2.22;;
48665;SDS011;34452;50.796;4.994;2023-12-29T09:26:54;8.55;;;1.95;;
48665;SDS011;34452;50.796;4.994;2023-12-29T09:29:19;10.02;;;1.58;;
48665;SDS011;34452;50.796;4.994;2023-12-29T09:31:45;10.73;;;1.73;;
48665;SDS011;34452;50.796;4.994;2023-12-29T09:34:11;11.35;;;1.50;;
48665;SDS011;34452;50.796;4.994;2023-12-29T09:36:37;13.07;;;2.03;;
48665;SDS011;34452;50.796;4.994;2023-12-29T09:39:03;11.73;;;1.45;;
48665;SDS011;34452;50.796;4.994;2023-12-29T09:41:28;12.82;;;1.90;;
48665;SDS011;34452;50.796;4.994;2023-12-29T09:43:58;13.38;;;2.50;;
48665;SDS011;34452;50.796;4.994;2023-12-29T09:46:28;12.43;;;2.17;;
48665;SDS011;34452;50.796;4.994;2023-12-29T09:48:58;9.55;;;1.60;;
48665;SDS011;34452;50.796;4.994;2023-12-29T09:51:30;13.35;;;1.77;;
48665;SDS011;34452;50.796;4.994;2023-12-29T09:58:49;9.13;;;1.27;;
48665;SDS011;34452;50.796;4.994;2023-12-29T10:01:17;8.88;;;1.58;;
48665;SDS011;34452;50.796;4.994;2023-12-29T10:03:44;7.28;;;1.52;;
48665;SDS011;34452;50.796;4.994;2023-12-29T10:06:12;8.57;;;1.58;;
48665;SDS011;34452;50.796;4.994;2023-12-29T10:08:43;11.70;;;2.15;;
48665;SDS011;34452;50.796;4.994;2023-12-29T10:11:11;15.55;;;1.80;;
48665;SDS011;34452;50.796;4.994;2023-12-29T10:13:41;14.30;;;1.83;;
48665;SDS011;34452;50.796;4.994;2023-12-29T10:16:52;6.93;;;1.40;;
48665;SDS011;34452;50.796;4.994;2023-12-29T10:22:10;9.82;;;1.65;;
48665;SDS011;34452;50.796;4.994;2023-12-29T10:24:43;12.65;;;2.17;;
48665;SDS011;34452;50.796;4.994;2023-12-29T10:27:12;5.70;;;1.20;;
48665;SDS011;34452;50.796;4.994;2023-12-29T10:32:04;11.20;;;2.15;;
48665;SDS011;34452;50.796;4.994;2023-12-29T10:34:30;9.13;;;1.52;;
48665;SDS011;34452;50.796;4.994;2023-12-29T10:36:57;6.70;;;1.65;;
48665;SDS011;34452;50.796;4.994;2023-12-29T10:39:24;10.75;;;1.50;;
48665;SDS011;34452;50.796;4.994;2023-12-29T10:42:02;9.48;;;1.60;;
48665;SDS011;34452;50.796;4.994;2023-12-29T10:44:30;11.60;;;1.83;;
48665;SDS011;34452;50.796;4.994;2023-12-29T10:46:55;8.90;;;1.48;;
48665;SDS011;34452;50.796;4.994;2023-12-29T10:49:21;10.38;;;2.55;;
48665;SDS011;34452;50.796;4.994;2023-12-29T10:51:47;8.85;;;1.60;;
48665;SDS011;34452;50.796;4.994;2023-12-29T10:54:20;13.75;;;1.85;;
48665;SDS011;34452;50.796;4.994;2023-12-29T10:56:59;11.23;;;1.67;;
48665;SDS011;34452;50.796;4.994;2023-12-29T10:59:27;7.10;;;1.50;;
48665;SDS011;34452;50.796;4.994;2023-12-29T11:01:53;10.93;;;1.20;;
48665;SDS011;34452;50.796;4.994;2023-12-29T11:04:21;4.88;;;1.08;;
48665;SDS011;34452;50.796;4.994;2023-12-29T11:06:48;8.07;;;1.30;;
48665;SDS011;34452;50.796;4.994;2023-12-29T11:09:31;13.68;;;1.45;;
48665;SDS011;34452;50.796;4.994;2023-12-29T11:12:03;5.40;;;1.35;;
48665;SDS011;34452;50.796;4.994;2023-12-29T11:14:31;11.57;;;1.70;;
48665;SDS011;34452;50.796;4.994;2023-12-29T11:16:57;6.60;;;1.13;;
48665;SDS011;34452;50.796;4.994;2023-12-29T11:19:25;6.82;;;1.52;;
48665;SDS011;34452;50.796;4.994;2023-12-29T11:21:52;7.85;;;1.02;;
48665;SDS011;34452;50.796;4.994;2023-12-29T11:24:20;11.98;;;1.63;;
48665;SDS011;34452;50.796;4.994;2023-12-29T11:26:46;10.00;;;1.42;;
48665;SDS011;34452;50.796;4.994;2023-12-29T11:29:14;7.28;;;1.30;;
48665;SDS011;34452;50.796;4.994;2023-12-29T11:31:40;7.45;;;1.25;;
48665;SDS011;34452;50.796;4.994;2023-12-29T11:34:10;8.98;;;1.33;;
48665;SDS011;34452;50.796;4.994;2023-12-29T11:36:40;11.07;;;1.55;;
48665;SDS011;34452;50.796;4.994;2023-12-29T11:42:04;7.82;;;1.45;;
48665;SDS011;34452;50.796;4.994;2023-12-29T11:44:40;9.23;;;1.30;;
48665;SDS011;34452;50.796;4.994;2023-12-29T11:47:06;7.65;;;1.40;;
48665;SDS011;34452;50.796;4.994;2023-12-29T11:50:02;8.05;;;1.58;;
48665;SDS011;34452;50.796;4.994;2023-12-29T11:52:35;8.55;;;1.30;;
48665;SDS011;34452;50.796;4.994;2023-12-29T11:55:08;10.85;;;1.65;;
48665;SDS011;34452;50.796;4.994;2023-12-29T11:57:38;8.02;;;1.35;;
48665;SDS011;34452;50.796;4.994;2023-12-29T12:00:07;12.05;;;1.70;;
48665;SDS011;34452;50.796;4.994;2023-12-29T12:02:34;8.23;;;1.25;;
48665;SDS011;34452;50.796;4.994;2023-12-29T12:05:00;8.23;;;1.52;;
48665;SDS011;34452;50.796;4.994;2023-12-29T12:12:41;12.55;;;2.13;;
48665;SDS011;34452;50.796;4.994;2023-12-29T12:17:52;12.48;;;2.20;;
48665;SDS011;34452;50.796;4.994;2023-12-29T12:20:18;11.85;;;1.63;;
48665;SDS011;34452;50.796;4.994;2023-12-29T12:22:44;10.98;;;1.92;;
48665;SDS011;34452;50.796;4.994;2023-12-29T12:25:11;9.65;;;2.00;;
48665;SDS011;34452;50.796;4.994;2023-12-29T12:30:04;15.45;;;2.55;;
48665;SDS011;34452;50.796;4.994;2023-12-29T12:32:32;9.98;;;1.70;;
48665;SDS011;34452;50.796;4.994;2023-12-29T12:34:58;16.80;;;2.28;;
48665;SDS011;34452;50.796;4.994;2023-12-29T12:37:25;10.38;;;1.63;;
48665;SDS011;34452;50.796;4.994;2023-12-29T12:39:51;10.35;;;1.50;;
48665;SDS011;34452;50.796;4.994;2023-12-29T12:42:18;12.10;;;1.75;;
48665;SDS011;34452;50.796;4.994;2023-12-29T12:47:27;12.73;;;1.98;;
48665;SDS011;34452;50.796;4.994;2023-12-29T12:50:00;13.77;;;1.50;;
48665;SDS011;34452;50.796;4.994;2023-12-29T12:52:30;14.57;;;1.98;;
48665;SDS011;34452;50.796;4.994;2023-12-29T12:54:57;9.77;;;1.63;;
48665;SDS011;34452;50.796;4.994;2023-12-29T12:57:23;11.13;;;1.70;;
48665;SDS011;34452;50.796;4.994;2023-12-29T12:59:49;9.80;;;1.75;;
48665;SDS011;34452;50.796;4.994;2023-12-29T13:02:18;10.10;;;1.60;;
48665;SDS011;34452;50.796;4.994;2023-12-29T13:04:45;7.45;;;1.45;;
48665;SDS011;34452;50.796;4.994;2023-12-29T13:07:11;9.27;;;1.60;;
48665;SDS011;34452;50.796;4.994;2023-12-29T13:09:41;6.00;;;1.35;;
48665;SDS011;34452;50.796;4.994;2023-12-29T13:12:07;10.27;;;1.67;;
48665;SDS011;34452;50.796;4.994;2023-12-29T13:14:34;5.78;;;1.13;;
48665;SDS011;34452;50.796;4.994;2023-12-29T13:17:04;17.88;;;1.80;;
48665;SDS011;34452;50.796;4.994;2023-12-29T13:19:34;8.50;;;1.70;;
48665;SDS011;34452;50.796;4.994;2023-12-29T13:22:00;9.50;;;1.73;;
48665;SDS011;34452;50.796;4.994;2023-12-29T13:24:26;9.45;;;1.30;;
48665;SDS011;34452;50.796;4.994;2023-12-29T13:26:54;7.20;;;1.13;;
48665;SDS011;34452;50.796;4.994;2023-12-29T13:29:23;6.80;;;1.60;;
48665;SDS011;34452;50.796;4.994;2023-12-29T13:31:50;3.10;;;0.98;;
48665;SDS011;34452;50.796;4.994;2023-12-29T13:37:25;4.85;;;1.13;;
48665;SDS011;34452;50.796;4.994;2023-12-29T13:42:44;3.85;;;0.85;;
48665;SDS011;34452;50.796;4.994;2023-12-29T13:45:12;3.28;;;0.98;;
48665;SDS011;34452;50.796;4.994;2023-12-29T13:47:40;7.03;;;1.10;;
48665;SDS011;34452;50.796;4.994;2023-12-29T13:50:08;5.55;;;0.90;;
48665;SDS011;34452;50.796;4.994;2023-12-29T13:52:38;4.78;;;1.02;;
48665;SDS011;34452;50.796;4.994;2023-12-29T13:55:05;5.75;;;1.10;;
48665;SDS011;34452;50.796;4.994;2023-12-29T13:57:34;2.40;;;0.93;;
48665;SDS011;34452;50.796;4.994;2023-12-29T14:00:16;6.45;;;0.82;;
48665;SDS011;34452;50.796;4.994;2023-12-29T14:02:47;3.47;;;0.80;;
48665;SDS011;34452;50.796;4.994;2023-12-29T14:05:31;2.10;;;0.70;;
48665;SDS011;34452;50.796;4.994;2023-12-29T14:10:33;1.85;;;0.70;;
48665;SDS011;34452;50.796;4.994;2023-12-29T14:13:07;5.13;;;0.90;;
48665;SDS011;34452;50.796;4.994;2023-12-29T14:15:40;3.75;;;0.77;;
48665;SDS011;34452;50.796;4.994;2023-12-29T14:20:58;3.63;;;0.90;;
48665;SDS011;34452;50.796;4.994;2023-12-29T14:25:50;5.05;;;1.00;;
48665;SDS011;34452;50.796;4.994;2023-12-29T14:28:17;3.92;;;0.88;;
48665;SDS011;34452;50.796;4.994;2023-12-29T14:30:44;3.33;;;0.82;;
48665;SDS011;34452;50.796;4.994;2023-12-29T14:33:10;6.72;;;1.17;;
48665;SDS011;34452;50.796;4.994;2023-12-29T14:35:36;5.20;;;1.38;;
48665;SDS011;34452;50.796;4.994;2023-12-29T14:38:03;7.43;;;1.23;;
48665;SDS011;34452;50.796;4.994;2023-12-29T14:40:29;7.93;;;1.60;;
48665;SDS011;34452;50.796;4.994;2023-12-29T14:42:55;6.53;;;1.63;;
48665;SDS011;34452;50.796;4.994;2023-12-29T14:45:21;8.18;;;1.65;;
48665;SDS011;34452;50.796;4.994;2023-12-29T14:47:46;8.27;;;1.67;;
48665;SDS011;34452;50.796;4.994;2023-12-29T14:50:14;10.95;;;1.25;;
48665;SDS011;34452;50.796;4.994;2023-12-29T14:52:41;5.80;;;1.50;;
48665;SDS011;34452;50.796;4.994;2023-12-29T14:55:07;5.97;;;1.05;;
48665;SDS011;34452;50.796;4.994;2023-12-29T14:57:33;12.30;;;1.33;;
48665;SDS011;34452;50.796;4.994;2023-12-29T14:59:59;7.93;;;1.42;;
48665;SDS011;34452;50.796;4.994;2023-12-29T15:02:25;6.85;;;1.45;;
48665;SDS011;34452;50.796;4.994;2023-12-29T15:04:50;9.25;;;1.63;;
48665;SDS011;34452;50.796;4.994;2023-12-29T15:07:16;11.00;;;1.77;;
48665;SDS011;34452;50.796;4.994;2023-12-29T15:09:45;7.78;;;1.50;;
48665;SDS011;34452;50.796;4.994;2023-12-29T15:12:10;8.88;;;2.15;;
48665;SDS011;34452;50.796;4.994;2023-12-29T15:14:36;11.27;;;2.78;;
48665;SDS011;34452;50.796;4.994;2023-12-29T15:17:02;9.45;;;1.50;;
48665;SDS011;34452;50.796;4.994;2023-12-29T15:19:28;6.68;;;1.33;;
48665;SDS011;34452;50.796;4.994;2023-12-29T15:21:53;7.70;;;1.70;;
48665;SDS011;34452;50.796;4.994;2023-12-29T15:24:20;10.27;;;1.70;;
48665;SDS011;34452;50.796;4.994;2023-12-29T15:26:46;13.85;;;1.92;;
48665;SDS011;34452;50.796;4.994;2023-12-29T15:29:12;6.78;;;1.23;;
48665;SDS011;34452;50.796;4.994;2023-12-29T15:31:37;11.48;;;1.92;;
48665;SDS011;34452;50.796;4.994;2023-12-29T15:34:08;9.05;;;1.65;;
48665;SDS011;34452;50.796;4.994;2023-12-29T15:36:34;9.18;;;1.95;;
48665;SDS011;34452;50.796;4.994;2023-12-29T15:39:00;6.90;;;1.75;;
48665;SDS011;34452;50.796;4.994;2023-12-29T15:41:26;11.35;;;1.60;;